Armadores I — SY8463 — position and weather

sailwx.info

Track history (hours):
 
Tides and Currents Weather Stations Pressure Air Temp Water Temp Dewpoint Dewpoint Depression Visibility Wind Speed Wind Dir Waves Ship Positions

Armadores I

Last reported at 2014-Nov-21 14:33 UTC. Time now 2014-Nov-21 18:03 UTC.
Position N 37°57' E 023°37'.

Length 32 m; draft 5.3 m.

Type: Tug. MMSI: 240694000.

Date/timePositionNaut miles runAvg speedWind from/ knotsBaromVisibWave heightAir tempDewpointWater temp
2014-Nov-21 14:33N 37°57' E 023°37'0 0.0
2014-Nov-21 13:33N 37°57' E 023°37'0 0.0
2014-Nov-21 12:33N 37°57' E 023°37'0 0.0
2014-Nov-21 11:33N 37°57' E 023°37'0 0.0
2014-Nov-21 10:33N 37°57' E 023°37'0 0.0
2014-Nov-21 09:33N 37°57' E 023°37'0 0.0
2014-Nov-21 08:33N 37°57' E 023°37'2 2.2
2014-Nov-21 07:34N 37°58' E 023°34'0 0.5
2014-Nov-21 06:33N 37°57' E 023°33'2 1.7
2014-Nov-21 05:33N 37°57' E 023°35'1 1.1
2014-Nov-21 04:33N 37°57' E 023°37'0 0.0
2014-Nov-20 11:33N 37°57' E 023°37'2 2.3
2014-Nov-20 10:33N 37°57' E 023°34'0 0.0
2014-Nov-20 09:33N 37°57' E 023°34'0 0.0
2014-Nov-20 08:33N 37°57' E 023°34'4 3.8
2014-Nov-20 07:34N 37°57' E 023°38'0 0.0
2014-Nov-20 06:33N 37°57' E 023°38'3 2.7
2014-Nov-20 05:33N 37°57' E 023°35'2 1.9
2014-Nov-20 04:33N 37°56' E 023°37'1 0.8
2014-Nov-20 03:28N 37°57' E 023°38'0 0.0
2014-Nov-20 02:13N 37°57' E 023°38'5 7.4
2014-Nov-20 01:33N 37°54' E 023°33'10 9.7
2014-Nov-20 00:34N 37°53' E 023°21'10 9.6
2014-Nov-19 23:33N 37°54' E 023°09'  
2014-Nov-16 12:29N 37°55' E 023°01'8 8.0
2014-Nov-16 11:31N 37°54' E 023°11'9 9.1
2014-Nov-16 10:33N 37°52' E 023°22'9 8.6
2014-Nov-16 09:33N 37°54' E 023°32'5 5.3
2014-Nov-16 08:33N 37°57' E 023°38'3 2.8
2014-Nov-16 07:33N 37°57' E 023°35'1 1.2
2014-Nov-16 06:33N 37°57' E 023°36'0 0.1
2014-Nov-16 05:33N 37°57' E 023°36'0 0.5
2014-Nov-16 04:33N 37°57' E 023°37'0 0.0
2014-Nov-15 11:21N 37°57' E 023°37'0 0.0
2014-Nov-15 10:14N 37°57' E 023°37'0 0.0
2014-Nov-15 09:34N 37°57' E 023°37'1 0.8
2014-Nov-15 08:34N 37°57' E 023°36'2 1.6
2014-Nov-15 07:34N 37°58' E 023°34'1 1.5
2014-Nov-15 06:33N 37°56' E 023°35'1 1.2
2014-Nov-15 05:34N 37°57' E 023°35'1 0.7
2014-Nov-15 04:34N 37°57' E 023°36'0 0.0
2014-Nov-15 03:34N 37°57' E 023°36'4 4.4
2014-Nov-15 02:34N 37°54' E 023°32'8 7.1
2014-Nov-15 01:30N 37°56' E 023°23'3 2.9
2014-Nov-15 00:34N 37°58' E 023°24'0 0.0
2014-Nov-14 23:34N 37°58' E 023°24'0 0.0
2014-Nov-14 22:34N 37°58' E 023°24'0 0.0
2014-Nov-14 21:34N 37°58' E 023°24'0 0.0
2014-Nov-14 20:34N 37°58' E 023°24'0 0.0
2014-Nov-14 19:34N 37°58' E 023°24'0 0.0
2014-Nov-14 18:34N 37°58' E 023°24'0 0.0
2014-Nov-14 17:34N 37°58' E 023°24'0 0.0
2014-Nov-14 16:34N 37°58' E 023°24'0 0.0
2014-Nov-14 15:34N 37°58' E 023°24'0 0.0
2014-Nov-14 14:34N 37°58' E 023°24'0 0.0
2014-Nov-14 12:31N 37°58' E 023°24'0 0.0
2014-Nov-14 11:32N 37°58' E 023°24'0 0.0
2014-Nov-14 10:33N 37°58' E 023°24'0 0.0
2014-Nov-14 09:32N 37°58' E 023°24'0 0.0
2014-Nov-14 08:33N 37°58' E 023°24'0 0.0
2014-Nov-14 07:31N 37°58' E 023°24'0 0.0
2014-Nov-14 06:30N 37°58' E 023°24'0 0.0
2014-Nov-14 03:18N 37°58' E 023°24'0 0.0
2014-Nov-13 23:29N 37°58' E 023°24'0 0.0
2014-Nov-13 21:18N 37°58' E 023°24'1 0.4
2014-Nov-13 19:10N 37°58' E 023°23'0 0.1
2014-Nov-13 18:33N 37°58' E 023°23'6 1.9
2014-Nov-13 15:10N 38°01' E 023°30'2 0.8
2014-Nov-13 12:33N 38°02' E 023°32'0 0.0
2014-Nov-13 11:33N 38°02' E 023°32'2 1.3
2014-Nov-13 10:18N 38°02' E 023°30'0 0.0
2014-Nov-13 09:33N 38°02' E 023°30'0 0.1
2014-Nov-13 08:31N 38°02' E 023°30'4 4.6
2014-Nov-13 07:33N 37°58' E 023°33'1 1.0
2014-Nov-13 06:33N 37°58' E 023°34'1 1.2
2014-Nov-13 05:33N 37°57' E 023°35'0 0.1
2014-Nov-13 04:33N 37°57' E 023°35'1 0.0
2014-Nov-12 13:33N 37°57' E 023°36'1 1.0
2014-Nov-12 12:33N 37°57' E 023°35'1 1.3
2014-Nov-12 11:33N 37°57' E 023°36'0 0.4
2014-Nov-12 10:33N 37°57' E 023°37'0 0.0
2014-Nov-12 09:19N 37°57' E 023°37'0 0.0
2014-Nov-12 08:26N 37°57' E 023°37'0 0.0
2014-Nov-12 07:33N 37°57' E 023°37'0 0.0
2014-Nov-12 06:33N 37°57' E 023°37'1 0.9
2014-Nov-12 05:33N 37°57' E 023°36'1 0.6
2014-Nov-12 04:33N 37°57' E 023°36'  
Track history (hours):
 
Tides and Currents Weather Stations Pressure Air Temp Water Temp Dewpoint Dewpoint Depression Visibility Wind Speed Wind Dir Waves Ship Positions

Armadores I

Last reported at 2014-Nov-21 14:33 UTC. Time now 2014-Nov-21 18:03 UTC.
Position N 37°57' E 023°37'.

Length 32 m; draft 5.3 m.

Type: Tug. MMSI: 240694000.

Date/timePositionNaut miles runAvg speedWind from/ knotsBaromVisibWave heightAir tempDewpointWater temp
2014-Nov-21 14:33N 37°57' E 023°37'0 0.0
2014-Nov-21 13:33N 37°57' E 023°37'0 0.0
2014-Nov-21 12:33N 37°57' E 023°37'0 0.0
2014-Nov-21 11:33N 37°57' E 023°37'0 0.0
2014-Nov-21 10:33N 37°57' E 023°37'0 0.0
2014-Nov-21 09:33N 37°57' E 023°37'0 0.0
2014-Nov-21 08:33N 37°57' E 023°37'2 2.2
2014-Nov-21 07:34N 37°58' E 023°34'0 0.5
2014-Nov-21 06:33N 37°57' E 023°33'2 1.7
2014-Nov-21 05:33N 37°57' E 023°35'1 1.1
2014-Nov-21 04:33N 37°57' E 023°37'0 0.0
2014-Nov-20 11:33N 37°57' E 023°37'2 2.3
2014-Nov-20 10:33N 37°57' E 023°34'0 0.0
2014-Nov-20 09:33N 37°57' E 023°34'0 0.0
2014-Nov-20 08:33N 37°57' E 023°34'4 3.8
2014-Nov-20 07:34N 37°57' E 023°38'0 0.0
2014-Nov-20 06:33N 37°57' E 023°38'3 2.7
2014-Nov-20 05:33N 37°57' E 023°35'2 1.9
2014-Nov-20 04:33N 37°56' E 023°37'1 0.8
2014-Nov-20 03:28N 37°57' E 023°38'0 0.0
2014-Nov-20 02:13N 37°57' E 023°38'5 7.4
2014-Nov-20 01:33N 37°54' E 023°33'10 9.7
2014-Nov-20 00:34N 37°53' E 023°21'10 9.6
2014-Nov-19 23:33N 37°54' E 023°09'  
2014-Nov-16 12:29N 37°55' E 023°01'8 8.0
2014-Nov-16 11:31N 37°54' E 023°11'9 9.1
2014-Nov-16 10:33N 37°52' E 023°22'9 8.6
2014-Nov-16 09:33N 37°54' E 023°32'5 5.3
2014-Nov-16 08:33N 37°57' E 023°38'3 2.8
2014-Nov-16 07:33N 37°57' E 023°35'1 1.2
2014-Nov-16 06:33N 37°57' E 023°36'0 0.1
2014-Nov-16 05:33N 37°57' E 023°36'0 0.5
2014-Nov-16 04:33N 37°57' E 023°37'0 0.0
2014-Nov-15 11:21N 37°57' E 023°37'0 0.0
2014-Nov-15 10:14N 37°57' E 023°37'0 0.0
2014-Nov-15 09:34N 37°57' E 023°37'1 0.8
2014-Nov-15 08:34N 37°57' E 023°36'2 1.6
2014-Nov-15 07:34N 37°58' E 023°34'1 1.5
2014-Nov-15 06:33N 37°56' E 023°35'1 1.2
2014-Nov-15 05:34N 37°57' E 023°35'1 0.7
2014-Nov-15 04:34N 37°57' E 023°36'0 0.0
2014-Nov-15 03:34N 37°57' E 023°36'4 4.4
2014-Nov-15 02:34N 37°54' E 023°32'8 7.1
2014-Nov-15 01:30N 37°56' E 023°23'3 2.9
2014-Nov-15 00:34N 37°58' E 023°24'0 0.0
2014-Nov-14 23:34N 37°58' E 023°24'0 0.0
2014-Nov-14 22:34N 37°58' E 023°24'0 0.0
2014-Nov-14 21:34N 37°58' E 023°24'0 0.0
2014-Nov-14 20:34N 37°58' E 023°24'0 0.0
2014-Nov-14 19:34N 37°58' E 023°24'0 0.0
2014-Nov-14 18:34N 37°58' E 023°24'0 0.0
2014-Nov-14 17:34N 37°58' E 023°24'0 0.0
2014-Nov-14 16:34N 37°58' E 023°24'0 0.0
2014-Nov-14 15:34N 37°58' E 023°24'0 0.0
2014-Nov-14 14:34N 37°58' E 023°24'0 0.0
2014-Nov-14 12:31N 37°58' E 023°24'0 0.0
2014-Nov-14 11:32N 37°58' E 023°24'0 0.0
2014-Nov-14 10:33N 37°58' E 023°24'0 0.0
2014-Nov-14 09:32N 37°58' E 023°24'0 0.0
2014-Nov-14 08:33N 37°58' E 023°24'0 0.0
2014-Nov-14 07:31N 37°58' E 023°24'0 0.0
2014-Nov-14 06:30N 37°58' E 023°24'0 0.0
2014-Nov-14 03:18N 37°58' E 023°24'0 0.0
2014-Nov-13 23:29N 37°58' E 023°24'0 0.0
2014-Nov-13 21:18N 37°58' E 023°24'1 0.4
2014-Nov-13 19:10N 37°58' E 023°23'0 0.1
2014-Nov-13 18:33N 37°58' E 023°23'6 1.9
2014-Nov-13 15:10N 38°01' E 023°30'2 0.8
2014-Nov-13 12:33N 38°02' E 023°32'0 0.0
2014-Nov-13 11:33N 38°02' E 023°32'2 1.3
2014-Nov-13 10:18N 38°02' E 023°30'0 0.0
2014-Nov-13 09:33N 38°02' E 023°30'0 0.1
2014-Nov-13 08:31N 38°02' E 023°30'4 4.6
2014-Nov-13 07:33N 37°58' E 023°33'1 1.0
2014-Nov-13 06:33N 37°58' E 023°34'1 1.2
2014-Nov-13 05:33N 37°57' E 023°35'0 0.1
2014-Nov-13 04:33N 37°57' E 023°35'1 0.0
2014-Nov-12 13:33N 37°57' E 023°36'1 1.0
2014-Nov-12 12:33N 37°57' E 023°35'1 1.3
2014-Nov-12 11:33N 37°57' E 023°36'0 0.4
2014-Nov-12 10:33N 37°57' E 023°37'0 0.0
2014-Nov-12 09:19N 37°57' E 023°37'0 0.0
2014-Nov-12 08:26N 37°57' E 023°37'0 0.0
2014-Nov-12 07:33N 37°57' E 023°37'0 0.0
2014-Nov-12 06:33N 37°57' E 023°37'1 0.9
2014-Nov-12 05:33N 37°57' E 023°36'1 0.6
2014-Nov-12 04:33N 37°57' E 023°36'  

Dump ship's entire track history